Time;durP1;ratioP1;P1;durP2;ratioP2;P2;SDS_P1;SDS_P2;PMS_P1;PMS_P2;Temp;Humidity;BMP_temperature;BMP_pressure;BME280_temperature;BME280_humidity;BME280_pressure;Samples;Min_cycle;Max_cycle;Signal;HPM_P1;HPM_P2
2022/01/12 00:00:47;;;;;;;;;58.25;48.25;;;;;2.73;74.40;103025.56;5048971;28;45742;-55
2022/01/12 00:03:13;;;;;;;;;71.50;51.00;;;;;2.71;74.26;103019.41;5047311;28;45403;-58
2022/01/12 00:05:39;;;;;;;;;70.00;51.75;;;;;2.65;74.34;103005.31;5039854;28;46148;-60
2022/01/12 00:08:05;;;;;;;;;65.50;49.00;;;;;2.76;74.12;103013.38;5041653;28;45300;-56
2022/01/12 00:10:30;;;;;;;;;73.75;51.75;;;;;2.82;73.89;103000.31;5053572;28;45524;-58
2022/01/12 00:12:55;;;;;;;;;64.25;52.00;;;;;2.92;73.68;103010.09;5058853;28;45482;-59
2022/01/12 00:15:21;;;;;;;;;66.75;54.00;;;;;2.94;73.34;103000.47;5054661;28;45502;-61
2022/01/12 00:17:46;;;;;;;;;67.00;51.25;;;;;2.93;73.15;102993.44;5057655;28;45382;-59
2022/01/12 00:20:12;;;;;;;;;68.75;54.00;;;;;2.99;73.11;103004.91;5029007;28;45413;-60
2022/01/12 00:22:39;;;;;;;;;67.00;53.50;;;;;2.90;73.67;103006.56;5057663;28;45284;-60
2022/01/12 00:25:23;;;;;;;;;58.75;45.00;;;;;2.81;73.75;103010.78;5043282;28;46670;-57
2022/01/12 00:33:17;;;;;;;;;65.75;51.25;;;;;2.79;73.71;103017.78;5039681;28;45361;-59
2022/01/12 00:35:45;;;;;;;;;64.75;48.75;;;;;2.84;73.15;103023.97;5057552;28;46258;-56
2022/01/12 00:38:13;;;;;;;;;72.50;49.50;;;;;2.78;73.21;103019.53;5055114;28;45710;-52
2022/01/12 00:40:41;;;;;;;;;62.50;47.75;;;;;2.78;73.67;103008.13;5053016;28;45782;-57
2022/01/12 00:43:07;;;;;;;;;58.00;46.75;;;;;2.72;73.98;103008.91;5057899;28;47275;-55
2022/01/12 00:45:34;;;;;;;;;69.00;52.00;;;;;2.75;73.42;103019.47;5034831;28;47203;-54
2022/01/12 00:48:00;;;;;;;;;62.25;50.50;;;;;2.81;73.93;103027.44;5055758;28;45323;-55
2022/01/12 00:50:26;;;;;;;;;58.00;48.00;;;;;2.78;73.13;103026.53;5055919;28;45410;-59
2022/01/12 00:52:53;;;;;;;;;56.50;47.50;;;;;2.81;73.06;103030.06;5056257;28;45383;-56
2022/01/12 00:55:18;;;;;;;;;62.75;53.25;;;;;2.81;73.52;103039.69;5049902;28;45360;-58
2022/01/12 00:57:44;;;;;;;;;67.75;47.75;;;;;2.70;73.67;103044.78;5055562;28;47188;-56
2022/01/12 01:00:10;;;;;;;;;51.50;46.75;;;;;2.76;73.40;103050.16;5038879;28;45280;-59
2022/01/12 01:02:35;;;;;;;;;71.00;55.00;;;;;2.66;74.10;103058.75;5054507;28;45399;-58
2022/01/12 01:05:01;;;;;;;;;72.25;53.00;;;;;2.48;74.44;103064.59;5038988;28;45399;-56
2022/01/12 01:07:27;;;;;;;;;55.50;44.25;;;;;2.39;75.45;103068.78;5037351;28;45351;-59
2022/01/12 01:10:06;;;;;;;;;57.75;42.75;;;;;2.45;75.54;103082.91;5042549;28;45470;-56
2022/01/12 01:12:35;;;;;;;;;65.00;51.25;;;;;2.51;74.74;103071.63;5037481;28;45415;-59
2022/01/12 01:15:07;;;;;;;;;70.25;52.00;;;;;2.61;74.29;103076.19;5056129;28;46059;-60
2022/01/12 01:25:38;;;;;;;;;59.25;45.00;;;;;2.49;75.15;103094.38;5041562;28;45487;-58
2022/01/12 01:28:05;;;;;;;;;58.00;48.75;;;;;2.48;74.76;103105.75;5042347;28;45336;-58
2022/01/12 01:30:32;;;;;;;;;50.25;45.25;;;;;2.54;74.62;103101.47;5056699;28;45428;-55
2022/01/12 01:33:04;;;;;;;;;63.25;48.75;;;;;2.65;74.32;103106.91;5045014;28;45480;-56
2022/01/12 01:35:31;;;;;;;;;65.00;46.50;;;;;2.69;74.17;103111.34;5050277;28;45404;-58
2022/01/12 01:38:02;;;;;;;;;60.00;47.25;;;;;2.76;74.17;103114.97;5050121;28;45450;-57
2022/01/12 01:40:29;;;;;;;;;75.00;53.25;;;;;2.82;73.62;103108.03;5043158;28;45255;-58
2022/01/12 01:53:45;;;;;;;;;72.25;52.50;;;;;2.85;73.76;103110.72;5056436;28;45474;-56
2022/01/12 01:56:10;;;;;;;;;70.00;54.25;;;;;2.86;73.75;103109.84;5056777;28;45517;-56
2022/01/12 01:58:36;;;;;;;;;73.25;54.75;;;;;2.95;73.88;103109.13;5043740;28;45760;-57
2022/01/12 02:01:03;;;;;;;;;70.00;49.25;;;;;2.99;73.37;103099.53;5054889;28;45485;-58
2022/01/12 02:03:29;;;;;;;;;80.25;58.00;;;;;2.96;73.57;103088.13;5036060;28;45556;-60
2022/01/12 02:05:56;;;;;;;;;74.75;57.00;;;;;3.07;73.29;103108.44;5051500;28;45632;-58
2022/01/12 02:08:22;;;;;;;;;71.00;56.00;;;;;3.03;73.46;103091.75;5041799;28;45323;-58
2022/01/12 02:10:58;;;;;;;;;79.75;56.25;;;;;3.08;73.42;103099.69;5042905;28;45243;-55
2022/01/12 02:13:24;;;;;;;;;75.75;50.75;;;;;3.03;73.19;103094.38;5047407;28;45445;-54
2022/01/12 02:15:51;;;;;;;;;79.00;60.50;;;;;2.97;74.16;103107.41;5054641;28;46725;-59
2022/01/12 02:35:22;;;;;;;;;69.50;57.00;;;;;2.89;74.58;103086.28;5048022;28;45376;-58
2022/01/12 02:40:30;;;;;;;;;82.50;57.50;;;;;2.90;74.25;103074.91;5044435;28;45508;-56
2022/01/12 02:43:08;;;;;;;;;79.75;59.50;;;;;2.94;74.20;103081.97;5040642;28;45393;-60
2022/01/12 02:53:46;;;;;;;;;75.25;54.75;;;;;3.06;73.88;103054.97;5052981;28;45253;-56
2022/01/12 02:56:41;;;;;;;;;72.50;56.25;;;;;3.07;73.82;103055.84;5054708;28;45417;-54
2022/01/12 02:59:09;;;;;;;;;72.75;53.50;;;;;3.06;73.39;103056.72;5054991;28;45326;-57
2022/01/12 03:02:01;;;;;;;;;57.50;46.00;;;;;3.10;73.37;103061.16;5053407;28;45466;-58
2022/01/12 03:04:22;;;;;;;;;73.75;50.00;;;;;3.04;73.33;103055.81;5045299;28;45350;-59
2022/01/12 03:06:50;;;;;;;;;61.75;47.25;;;;;3.01;73.36;103055.78;5037077;28;45462;-58
2022/01/12 03:09:16;;;;;;;;;72.75;51.75;;;;;3.05;73.45;103065.47;5048016;28;45430;-59
2022/01/12 03:11:41;;;;;;;;;67.25;51.25;;;;;3.01;73.71;103079.44;5055981;28;45172;-56
2022/01/12 03:14:06;;;;;;;;;72.00;53.25;;;;;3.01;73.81;103077.69;5035420;28;45622;-57
2022/01/12 03:16:32;;;;;;;;;67.00;52.00;;;;;3.04;73.90;103090.00;5054326;28;45494;-59
2022/01/12 03:19:00;;;;;;;;;63.75;50.00;;;;;2.97;73.83;103102.16;5056041;28;45380;-57
2022/01/12 03:21:30;;;;;;;;;70.75;52.25;;;;;2.83;74.53;103096.69;5055595;28;45360;-58
2022/01/12 03:23:56;;;;;;;;;61.75;49.50;;;;;2.76;74.28;103086.06;5036260;28;45849;-56
2022/01/12 03:26:22;;;;;;;;;63.50;51.50;;;;;2.73;75.12;103091.25;5029510;28;45315;-57
2022/01/12 03:28:53;;;;;;;;;67.75;48.00;;;;;2.73;75.24;103096.50;5027532;28;46743;-60
2022/01/12 03:31:22;;;;;;;;;61.25;51.25;;;;;2.70;75.28;103097.34;5044076;28;47223;-61
2022/01/12 03:33:54;;;;;;;;;55.75;49.25;;;;;2.63;75.22;103100.75;5053877;28;45503;-63
2022/01/12 03:39:06;;;;;;;;;65.50;52.00;;;;;2.58;75.70;103102.38;5044460;28;45458;-57
2022/01/12 03:41:35;;;;;;;;;60.00;48.75;;;;;2.58;75.55;103099.75;5054792;28;45523;-57
2022/01/12 03:44:02;;;;;;;;;66.50;51.75;;;;;2.65;75.29;103102.53;5048853;28;45391;-58
2022/01/12 03:46:27;;;;;;;;;62.25;48.25;;;;;2.71;74.93;103087.72;5043739;28;45574;-59
2022/01/12 03:48:53;;;;;;;;;63.00;45.00;;;;;2.77;74.21;103098.34;5020824;28;48030;-57
2022/01/12 03:51:19;;;;;;;;;63.50;48.00;;;;;2.79;74.66;103102.75;5043780;28;45451;-58
2022/01/12 03:53:45;;;;;;;;;70.00;54.50;;;;;2.76;74.81;103107.97;5051714;28;45437;-60
2022/01/12 03:56:10;;;;;;;;;54.75;44.75;;;;;2.82;74.46;103108.03;5055261;28;45579;-57
2022/01/12 03:58:36;;;;;;;;;49.00;45.50;;;;;2.84;74.60;103114.22;5035065;28;45625;-57
2022/01/12 04:01:02;;;;;;;;;65.75;48.50;;;;;2.73;74.59;103128.03;5053997;28;45317;-57
2022/01/12 04:03:29;;;;;;;;;59.75;44.75;;;;;2.54;75.03;103126.84;5047901;28;45458;-57
2022/01/12 04:08:20;;;;;;;;;53.75;43.00;;;;;2.50;75.69;103143.41;5056730;28;46146;-54
2022/01/12 04:10:47;;;;;;;;;66.50;48.25;;;;;2.39;76.01;103124.81;5058056;28;45469;-54
2022/01/12 04:13:13;;;;;;;;;65.50;45.50;;;;;2.31;76.17;103137.81;5058922;28;45402;-60
2022/01/12 04:15:39;;;;;;;;;52.00;45.25;;;;;2.37;75.95;103150.19;5057398;28;45620;-56
2022/01/12 04:18:05;;;;;;;;;57.25;47.75;;;;;2.33;76.45;103154.47;5058158;28;45429;-59
2022/01/12 04:20:30;;;;;;;;;57.25;46.00;;;;;2.30;76.58;103156.16;5054498;28;45478;-56
2022/01/12 04:25:39;;;;;;;;;58.75;47.25;;;;;2.33;76.33;103159.72;5058658;28;45467;-55
2022/01/12 04:28:05;;;;;;;;;68.75;48.50;;;;;2.37;76.22;103181.69;5056332;28;46041;-59
2022/01/12 04:30:30;;;;;;;;;64.50;46.75;;;;;2.32;76.49;103178.97;5045125;28;45407;-58
2022/01/12 04:32:56;;;;;;;;;66.75;47.50;;;;;2.35;76.75;103173.78;5052565;28;45881;-56
2022/01/12 04:35:25;;;;;;;;;56.25;45.50;;;;;2.43;75.93;103180.91;5041831;28;45263;-60
2022/01/12 04:37:53;;;;;;;;;66.25;49.00;;;;;2.42;75.57;103180.03;5024324;28;45477;-58
2022/01/12 04:40:19;;;;;;;;;58.50;44.25;;;;;2.52;76.27;103186.34;5054990;28;45518;-58
2022/01/12 04:42:44;;;;;;;;;69.25;48.00;;;;;2.62;75.70;103189.19;5067597;28;45378;-55
2022/01/12 04:45:37;;;;;;;;;52.50;45.00;;;;;2.66;75.67;103184.84;5058494;28;45419;-58
2022/01/12 04:50:37;;;;;;;;;50.75;45.75;;;;;2.69;74.39;103191.91;5044528;28;45207;-57
2022/01/12 04:53:03;;;;;;;;;60.75;48.00;;;;;2.61;75.04;103181.28;5052930;28;45559;-54
2022/01/12 04:55:29;;;;;;;;;68.00;52.00;;;;;2.61;75.01;103187.41;5037727;28;45373;-59
2022/01/12 04:57:55;;;;;;;;;74.75;52.25;;;;;2.52;75.82;103192.50;5045582;28;45482;-56
2022/01/12 05:00:22;;;;;;;;;77.75;49.75;;;;;2.41;76.51;103187.88;5044310;28;45491;-59
2022/01/12 05:13:31;;;;;;;;;64.75;50.00;;;;;2.30;76.33;103206.94;5046584;28;45217;-60
2022/01/12 05:15:58;;;;;;;;;62.25;47.00;;;;;2.43;76.62;103215.06;5041380;28;45585;-59
2022/01/12 05:18:24;;;;;;;;;65.75;48.50;;;;;2.51;76.13;103211.72;5054775;28;46891;-55
2022/01/12 05:20:50;;;;;;;;;65.00;49.00;;;;;2.57;75.92;103200.44;5033423;28;45331;-57
2022/01/12 05:23:15;;;;;;;;;68.25;51.00;;;;;2.60;76.03;103206.66;5032151;28;45452;-58
2022/01/12 05:25:41;;;;;;;;;67.50;47.75;;;;;2.62;75.96;103188.28;5057262;28;45181;-59
2022/01/12 05:28:07;;;;;;;;;68.25;46.75;;;;;2.65;75.71;103183.09;5053681;28;46258;-60
2022/01/12 05:30:33;;;;;;;;;63.25;47.00;;;;;2.66;75.57;103185.75;5050988;28;45411;-60
2022/01/12 05:33:00;;;;;;;;;63.25;46.75;;;;;2.73;75.13;103184.09;5050162;28;45478;-57
2022/01/12 05:35:31;;;;;;;;;67.00;48.00;;;;;2.73;74.97;103176.22;5056297;28;45610;-55
2022/01/12 05:37:57;;;;;;;;;70.50;49.75;;;;;2.73;75.32;103185.84;5038811;28;45551;-57
2022/01/12 05:40:23;;;;;;;;;69.00;54.75;;;;;2.71;74.96;103180.56;5054794;28;45438;-54
2022/01/12 05:42:50;;;;;;;;;71.25;50.25;;;;;2.72;75.12;103184.94;5057534;28;45272;-57
2022/01/12 05:45:18;;;;;;;;;60.25;48.75;;;;;2.74;75.06;103183.25;5038806;28;45462;-58
2022/01/12 05:50:10;;;;;;;;;62.50;47.00;;;;;2.76;75.14;103178.03;5053307;28;45455;-58
2022/01/12 05:52:36;;;;;;;;;63.75;45.25;;;;;2.76;75.02;103172.78;5051102;28;46331;-57
2022/01/12 05:55:03;;;;;;;;;73.25;49.00;;;;;2.81;74.47;103174.59;5057302;28;45729;-57
2022/01/12 05:57:30;;;;;;;;;68.50;49.00;;;;;2.80;75.00;103171.97;5048184;28;45994;-55
2022/01/12 05:59:58;;;;;;;;;64.25;47.75;;;;;2.88;74.60;103187.00;5053543;28;45426;-55
2022/01/12 06:02:23;;;;;;;;;76.00;53.75;;;;;2.75;75.44;103200.78;5048129;28;45830;-58
2022/01/12 06:04:48;;;;;;;;;69.75;54.00;;;;;2.72;75.49;103190.22;5055425;28;45455;-57
2022/01/12 06:07:14;;;;;;;;;73.00;47.75;;;;;2.74;75.68;103201.66;5034309;28;46697;-55
2022/01/12 06:09:39;;;;;;;;;67.25;54.50;;;;;2.69;75.84;103205.94;5048047;28;45471;-58
2022/01/12 06:12:05;;;;;;;;;69.00;53.75;;;;;2.68;75.94;103206.78;5056823;28;45391;-56
2022/01/12 06:14:31;;;;;;;;;69.25;53.00;;;;;2.75;75.69;103202.53;5055437;28;45493;-56
2022/01/12 06:16:56;;;;;;;;;62.50;50.50;;;;;2.77;75.74;103187.69;5056177;28;46243;-57
2022/01/12 06:19:22;;;;;;;;;71.50;48.00;;;;;2.82;75.58;103192.16;5056209;28;45351;-56
2022/01/12 06:21:48;;;;;;;;;61.00;48.25;;;;;2.88;74.93;103197.53;5056355;28;45305;-54
2022/01/12 06:24:14;;;;;;;;;76.75;59.25;;;;;2.84;75.50;103198.31;5037251;28;45728;-56
2022/01/12 06:26:40;;;;;;;;;69.50;53.75;;;;;2.71;75.43;103198.06;5056224;28;45368;-57
2022/01/12 06:31:35;;;;;;;;;70.50;52.00;;;;;2.72;75.67;103194.56;5056190;28;45259;-57
2022/01/12 06:34:01;;;;;;;;;71.75;52.50;;;;;2.73;75.97;103197.22;5056233;28;45553;-60
2022/01/12 06:36:26;;;;;;;;;64.00;53.75;;;;;2.69;76.34;103190.16;5037770;28;45281;-59
2022/01/12 06:38:52;;;;;;;;;55.50;47.50;;;;;2.77;75.83;103193.81;5055511;28;45360;-57
2022/01/12 06:41:19;;;;;;;;;66.75;49.50;;;;;2.80;75.58;103208.75;5056142;28;45470;-55
2022/01/12 06:43:45;;;;;;;;;71.50;51.25;;;;;2.74;75.72;103199.03;5054611;28;45625;-64
2022/01/12 06:46:13;;;;;;;;;51.00;44.75;;;;;2.84;75.64;103200.06;5054902;28;45609;-60
2022/01/12 06:48:39;;;;;;;;;76.50;56.50;;;;;2.84;75.12;103211.44;5055452;28;46005;-58
2022/01/12 06:51:05;;;;;;;;;76.25;52.75;;;;;2.70;75.37;103207.69;5055529;28;45486;-59
2022/01/12 06:53:32;;;;;;;;;64.00;51.00;;;;;2.68;75.95;103219.91;5056248;28;45739;-60
2022/01/12 06:55:58;;;;;;;;;67.25;49.00;;;;;2.66;75.68;103209.38;5035426;28;46526;-61
2022/01/12 06:58:25;;;;;;;;;64.50;49.75;;;;;2.76;75.34;103218.34;5052821;28;45288;-65
2022/01/12 07:00:50;;;;;;;;;62.75;43.50;;;;;2.89;75.47;103211.56;5036601;28;45279;-64
2022/01/12 07:03:16;;;;;;;;;61.25;43.00;;;;;2.93;74.45;103216.00;5056288;28;45618;-64
2022/01/12 07:05:42;;;;;;;;;63.50;47.75;;;;;2.99;74.64;103209.94;5063715;28;46088;-68
2022/01/12 07:08:07;;;;;;;;;48.75;37.75;;;;;3.06;74.51;103209.19;5069823;28;45268;-65
2022/01/12 07:10:33;;;;;;;;;61.75;47.75;;;;;3.08;73.44;103211.00;5054889;28;45387;-64
2022/01/12 07:12:58;;;;;;;;;52.50;43.25;;;;;3.09;73.79;103204.88;5056039;28;45458;-65
2022/01/12 07:15:24;;;;;;;;;59.00;46.25;;;;;3.12;73.86;103207.53;5054894;28;45558;-65
2022/01/12 07:17:49;;;;;;;;;59.00;50.50;;;;;3.17;73.74;103205.00;5035454;28;45772;-63
2022/01/12 07:20:16;;;;;;;;;67.25;50.25;;;;;3.15;73.38;103188.31;5055206;28;45535;-64
2022/01/12 07:22:42;;;;;;;;;66.50;51.75;;;;;3.17;73.07;103187.50;5036948;28;45361;-67
2022/01/12 07:25:08;;;;;;;;;65.25;52.25;;;;;3.16;73.40;103192.72;5053686;28;46347;-66
2022/01/12 07:27:34;;;;;;;;;58.75;48.25;;;;;3.16;73.86;103190.97;5055106;28;45307;-66
2022/01/12 07:30:00;;;;;;;;;61.75;48.00;;;;;3.21;73.07;103202.44;5055192;28;45302;-67
2022/01/12 07:32:26;;;;;;;;;57.75;45.00;;;;;3.19;73.41;103211.19;5034759;28;45454;-66
2022/01/12 07:34:52;;;;;;;;;62.50;52.25;;;;;3.08;73.70;103220.63;5034095;28;47966;-64
2022/01/12 07:37:17;;;;;;;;;71.00;51.25;;;;;2.93;74.36;103210.75;5052885;28;45489;-65
2022/01/12 07:39:43;;;;;;;;;62.25;47.50;;;;;2.84;74.70;103206.19;5056517;28;45444;-65
2022/01/12 07:42:08;;;;;;;;;65.50;48.25;;;;;2.94;75.00;103223.03;5057992;28;45402;-66
2022/01/12 07:44:34;;;;;;;;;59.50;48.00;;;;;3.00;74.43;103227.53;5057497;28;46028;-66
2022/01/12 07:46:59;;;;;;;;;60.00;48.50;;;;;3.07;74.24;103237.25;5057098;28;46338;-66
2022/01/12 07:49:25;;;;;;;;;66.50;48.75;;;;;3.17;74.20;103247.09;5058243;28;45776;-67
2022/01/12 07:51:50;;;;;;;;;66.25;46.50;;;;;3.24;73.37;103248.94;5056106;28;45651;-67
2022/01/12 07:54:16;;;;;;;;;63.50;49.00;;;;;3.30;73.68;103248.19;5055393;28;45899;-66
2022/01/12 07:56:41;;;;;;;;;58.75;49.00;;;;;3.31;73.69;103256.09;5048536;28;45373;-66
2022/01/12 07:59:07;;;;;;;;;70.25;54.25;;;;;3.29;73.15;103255.19;5057840;28;45451;-68
2022/01/12 08:01:32;;;;;;;;;53.50;44.25;;;;;3.33;73.42;103262.25;5058603;28;45461;-66
2022/01/12 08:03:58;;;;;;;;;54.00;38.50;;;;;3.33;73.35;103264.88;5053222;28;46140;-65
2022/01/12 08:06:23;;;;;;;;;68.25;47.50;;;;;3.27;73.32;103274.44;5058408;28;45474;-67
2022/01/12 08:08:49;;;;;;;;;71.00;51.50;;;;;3.27;73.58;103277.06;5058459;28;45392;-65
2022/01/12 08:11:14;;;;;;;;;77.25;55.25;;;;;3.18;73.80;103278.66;5057853;28;45780;-65
2022/01/12 08:13:42;;;;;;;;;53.00;45.50;;;;;3.18;74.05;103290.94;5058373;28;46144;-66
2022/01/12 08:16:08;;;;;;;;;64.75;49.75;;;;;3.19;74.32;103287.44;5057386;28;45458;-65
2022/01/12 08:18:34;;;;;;;;;62.00;52.00;;;;;3.12;73.90;103290.81;5058203;28;45433;-65
2022/01/12 08:21:00;;;;;;;;;58.50;42.75;;;;;3.06;74.61;103306.47;5057030;28;45541;-67
2022/01/12 08:23:26;;;;;;;;;68.75;49.75;;;;;3.05;74.75;103302.09;5057831;28;45484;-64
2022/01/12 08:25:52;;;;;;;;;69.00;52.00;;;;;3.14;74.15;103318.91;5058018;28;45293;-67
2022/01/12 08:28:17;;;;;;;;;62.50;48.25;;;;;3.16;73.94;103321.56;5037396;28;45300;-63
2022/01/12 08:30:42;;;;;;;;;73.25;51.50;;;;;3.04;74.60;103308.19;5043280;28;45597;-66
2022/01/12 08:33:09;;;;;;;;;74.00;54.25;;;;;3.15;74.46;103317.19;5039436;28;47166;-67
2022/01/12 08:35:35;;;;;;;;;71.00;56.25;;;;;3.24;74.04;103319.94;5058186;28;45685;-65
2022/01/12 08:38:01;;;;;;;;;78.75;62.75;;;;;3.26;73.80;103315.63;5022941;28;45417;-67
2022/01/12 08:40:27;;;;;;;;;72.75;55.50;;;;;3.32;73.87;103331.50;5058376;28;45776;-65
2022/01/12 08:42:53;;;;;;;;;74.75;55.00;;;;;3.42;74.04;103330.81;5039902;28;47652;-67
2022/01/12 08:45:19;;;;;;;;;76.25;59.75;;;;;3.44;73.61;103336.97;5038530;28;45491;-67
2022/01/12 08:47:45;;;;;;;;;72.25;56.50;;;;;3.54;73.17;103332.78;5056835;28;45442;-68
2022/01/12 08:50:13;;;;;;;;;82.75;57.00;;;;;3.64;72.98;103334.66;5053363;28;45458;-66
2022/01/12 08:52:44;;;;;;;;;75.50;56.50;;;;;3.63;72.48;103330.25;5034647;28;46753;-65
2022/01/12 08:55:11;;;;;;;;;76.25;53.75;;;;;3.57;72.83;103310.88;5029239;28;45549;-66
2022/01/12 08:57:36;;;;;;;;;70.50;56.00;;;;;3.60;72.60;103331.97;5055359;28;45457;-68
2022/01/12 09:00:04;;;;;;;;;87.25;55.00;;;;;3.57;72.89;103343.34;5057719;28;45331;-69
2022/01/12 09:02:30;;;;;;;;;73.00;52.25;;;;;3.68;72.36;103346.16;5057189;28;45695;-67
2022/01/12 09:04:55;;;;;;;;;75.75;54.00;;;;;3.78;72.47;103342.81;5055322;28;46790;-66
2022/01/12 09:07:21;;;;;;;;;72.00;56.75;;;;;3.85;72.28;103353.44;5039739;28;45507;-71
2022/01/12 09:09:46;;;;;;;;;71.75;58.25;;;;;3.90;71.80;103350.88;5039681;28;45336;-68
2022/01/12 09:12:12;;;;;;;;;79.00;60.50;;;;;3.78;72.14;103353.34;5056674;28;45537;-68
2022/01/12 09:14:37;;;;;;;;;81.25;60.75;;;;;3.87;71.94;103363.13;5056954;28;45346;-67
2022/01/12 09:17:03;;;;;;;;;78.75;63.75;;;;;3.96;71.65;103365.91;5056677;28;45687;-66
2022/01/12 09:19:29;;;;;;;;;72.50;60.75;;;;;3.95;71.46;103367.66;5057412;28;45597;-65
2022/01/12 09:21:56;;;;;;;;;87.50;61.25;;;;;3.90;72.04;103374.56;5057203;28;45403;-66
2022/01/12 09:24:22;;;;;;;;;76.75;58.50;;;;;3.91;72.08;103381.63;5056327;28;45493;-69
2022/01/12 09:26:49;;;;;;;;;69.25;55.75;;;;;3.92;71.59;103393.94;5056984;28;45467;-66
2022/01/12 09:29:14;;;;;;;;;77.00;56.25;;;;;3.96;71.58;103394.88;5035245;28;45235;-64
2022/01/12 09:31:39;;;;;;;;;62.75;47.25;;;;;3.95;71.57;103404.50;5036583;28;45442;-65
2022/01/12 09:34:06;;;;;;;;;69.25;55.25;;;;;3.94;71.99;103413.28;5036800;28;45387;-65
2022/01/12 09:36:32;;;;;;;;;75.25;56.00;;;;;4.06;71.63;103416.09;5019275;28;45498;-66
2022/01/12 09:38:58;;;;;;;;;65.50;50.00;;;;;4.20;71.72;103408.41;5037605;28;45415;-70
2022/01/12 09:41:25;;;;;;;;;74.25;54.75;;;;;4.29;71.49;103405.00;5032162;28;46885;-68
2022/01/12 09:43:52;;;;;;;;;68.00;57.50;;;;;4.39;70.09;103422.75;5038314;28;45569;-68
2022/01/12 09:46:19;;;;;;;;;63.50;51.25;;;;;4.43;70.73;103422.84;5056761;28;45372;-64
2022/01/12 09:48:45;;;;;;;;;86.00;60.25;;;;;4.50;70.54;103415.00;5039047;28;45608;-69
2022/01/12 09:51:11;;;;;;;;;74.25;57.50;;;;;4.56;70.89;103426.53;5056476;28;46252;-65
2022/01/12 09:53:38;;;;;;;;;76.00;56.25;;;;;4.51;69.62;103422.03;5056463;28;45371;-68
2022/01/12 09:56:16;;;;;;;;;76.50;59.75;;;;;4.49;70.03;103414.09;5037535;28;45406;-62
2022/01/12 09:58:42;;;;;;;;;78.00;60.00;;;;;4.63;70.00;103428.38;5056496;28;45321;-66
2022/01/12 10:01:09;;;;;;;;;74.25;56.50;;;;;4.66;69.12;103423.13;5056035;28;46575;-66
2022/01/12 10:03:35;;;;;;;;;76.50;57.25;;;;;4.72;69.51;103417.97;5055569;28;45375;-65
2022/01/12 10:06:14;;;;;;;;;74.25;54.00;;;;;4.78;68.44;103413.63;5056873;28;45290;-67
2022/01/12 10:08:41;;;;;;;;;76.50;52.75;;;;;4.80;68.42;103409.25;5056832;28;45352;-67
2022/01/12 10:11:14;;;;;;;;;75.50;55.25;;;;;4.89;68.45;103412.88;5055809;28;45422;-61
2022/01/12 10:13:41;;;;;;;;;78.75;61.25;;;;;4.95;68.32;103420.00;5038096;28;45736;-67
2022/01/12 10:16:25;;;;;;;;;78.00;61.75;;;;;4.98;68.68;103420.91;5055994;28;45367;-63
2022/01/12 10:18:53;;;;;;;;;79.50;52.25;;;;;4.99;68.09;103421.81;5054632;28;45532;-68
2022/01/12 10:21:32;;;;;;;;;73.00;55.25;;;;;4.92;68.06;103426.09;5055702;28;46261;-65
2022/01/12 10:24:05;;;;;;;;;61.75;52.75;;;;;4.94;68.27;103424.38;5055476;28;45489;-62
2022/01/12 10:26:39;;;;;;;;;69.25;52.50;;;;;5.00;68.48;103424.47;5056329;28;45251;-62
2022/01/12 10:29:10;;;;;;;;;70.75;56.00;;;;;5.04;68.02;103428.00;5021998;28;45575;-65
2022/01/12 10:31:43;;;;;;;;;77.00;61.25;;;;;5.09;67.74;103418.41;5055422;28;45466;-66
2022/01/12 10:34:08;;;;;;;;;72.00;58.25;;;;;5.23;67.56;103411.53;5036837;28;45527;-65
2022/01/12 10:36:42;;;;;;;;;73.00;55.00;;;;;5.30;68.06;103412.47;5052439;28;45513;-71
2022/01/12 10:39:11;;;;;;;;;71.25;58.75;;;;;5.36;67.34;103423.13;5045538;28;45405;-67
2022/01/12 10:41:51;;;;;;;;;74.25;61.25;;;;;5.39;66.61;103416.97;5037323;28;46208;-68
2022/01/12 10:44:32;;;;;;;;;74.50;54.00;;;;;5.30;67.25;103418.63;5055633;28;45492;-67
2022/01/12 10:47:14;;;;;;;;;67.75;53.25;;;;;5.28;67.18;103417.75;5037954;28;45395;-67
2022/01/12 10:49:53;;;;;;;;;83.00;58.75;;;;;5.38;67.45;103410.81;5038075;28;45535;-63
2022/01/12 10:52:19;;;;;;;;;68.50;54.75;;;;;5.37;66.42;103416.97;5055581;28;45421;-70
2022/01/12 10:54:53;;;;;;;;;70.50;57.25;;;;;5.32;66.60;103413.38;5037345;28;45350;-63
2022/01/12 10:57:37;;;;;;;;;62.75;47.00;;;;;5.42;66.76;103409.09;5056061;28;45344;-65
2022/01/12 11:00:25;;;;;;;;;66.50;54.00;;;;;5.59;66.77;103415.41;5055969;28;45593;-61
2022/01/12 11:02:59;;;;;;;;;76.50;55.25;;;;;5.49;66.27;103414.47;5028377;28;47025;-61
2022/01/12 11:05:29;;;;;;;;;78.75;61.25;;;;;5.36;66.88;103423.13;5037267;28;45398;-66
2022/01/12 11:07:55;;;;;;;;;72.75;53.75;;;;;5.21;66.67;103408.00;5037293;28;45296;-63
2022/01/12 11:10:22;;;;;;;;;72.00;51.25;;;;;5.27;66.73;103418.63;5037361;28;45379;-65
2022/01/12 11:12:49;;;;;;;;;77.25;58.00;;;;;5.29;66.54;103421.28;5054695;28;46077;-62
2022/01/12 11:15:17;;;;;;;;;70.25;53.50;;;;;5.43;67.32;103431.97;5054469;28;45439;-62
2022/01/12 11:17:44;;;;;;;;;80.50;58.50;;;;;5.54;66.54;103430.34;5048523;28;45556;-63
2022/01/12 11:20:17;;;;;;;;;71.00;53.25;;;;;5.64;67.40;103426.91;5053495;28;45341;-65
2022/01/12 11:22:43;;;;;;;;;77.00;56.00;;;;;5.73;66.73;103419.09;5036759;28;47946;-62
2022/01/12 11:25:20;;;;;;;;;77.00;54.25;;;;;5.80;66.65;103426.19;5054982;28;45419;-68
2022/01/12 11:27:51;;;;;;;;;72.00;56.75;;;;;5.81;66.38;103422.66;5017077;28;45301;-65
2022/01/12 11:30:18;;;;;;;;;72.50;55.50;;;;;5.85;65.91;103424.44;5053340;28;45402;-65
2022/01/12 11:32:54;;;;;;;;;70.25;54.00;;;;;5.68;65.16;103426.06;5055292;28;45735;-69
2022/01/12 11:35:26;;;;;;;;;69.50;56.75;;;;;5.57;65.34;103423.31;5055395;28;45454;-65
2022/01/12 11:37:55;;;;;;;;;73.75;57.00;;;;;5.63;65.71;103419.88;5037314;28;45432;-62
2022/01/12 11:40:33;;;;;;;;;74.75;54.00;;;;;5.63;65.77;103411.94;5037185;28;45649;-65
2022/01/12 11:42:58;;;;;;;;;68.25;53.75;;;;;5.67;66.25;103408.47;5055061;28;45463;-70
2022/01/12 11:45:24;;;;;;;;;71.25;47.75;;;;;5.80;65.96;103414.75;5058680;28;45363;-65
2022/01/12 11:47:51;;;;;;;;;69.25;51.75;;;;;5.82;65.22;103403.31;5059219;28;45359;-65
2022/01/12 11:50:17;;;;;;;;;70.50;56.50;;;;;5.92;65.73;103409.59;5055455;28;45420;-70
2022/01/12 11:52:43;;;;;;;;;72.25;56.00;;;;;5.96;65.60;103398.16;5037243;28;45458;-67
2022/01/12 11:55:10;;;;;;;;;72.00;57.75;;;;;6.01;64.76;103395.59;5054896;28;45447;-63
2022/01/12 11:57:42;;;;;;;;;65.50;53.25;;;;;6.05;64.54;103398.25;5035342;28;45287;-65
2022/01/12 12:00:20;;;;;;;;;69.50;52.75;;;;;6.02;64.69;103406.16;5035385;28;45578;-67
2022/01/12 12:02:51;;;;;;;;;61.75;49.75;;;;;5.97;64.15;103401.69;5015611;28;45446;-65
2022/01/12 12:05:25;;;;;;;;;71.50;55.50;;;;;5.99;65.11;103387.66;5036732;28;45394;-64
2022/01/12 12:07:53;;;;;;;;;82.00;58.25;;;;;6.09;63.96;103391.22;5054534;28;45434;-72
2022/01/12 12:10:23;;;;;;;;;72.50;55.00;;;;;6.15;64.99;103388.66;5055562;28;45429;-68
2022/01/12 12:12:53;;;;;;;;;65.25;52.75;;;;;6.21;64.43;103391.31;5055022;28;45978;-65
2022/01/12 12:15:23;;;;;;;;;70.50;55.50;;;;;6.24;64.12;103386.03;5055201;28;45474;-68
2022/01/12 12:17:50;;;;;;;;;74.00;60.50;;;;;6.26;64.57;103384.31;5033527;28;45331;-64
2022/01/12 12:20:18;;;;;;;;;61.50;49.75;;;;;6.36;64.33;103390.53;5049790;28;45671;-64
2022/01/12 12:22:46;;;;;;;;;70.50;55.25;;;;;6.46;63.43;103374.72;5016637;28;47786;-67
2022/01/12 12:25:15;;;;;;;;;65.50;53.00;;;;;6.45;63.32;103372.06;5035772;28;45411;-70
2022/01/12 12:27:44;;;;;;;;;71.75;57.00;;;;;6.53;64.53;103369.50;5056205;28;45466;-66
2022/01/12 12:30:13;;;;;;;;;66.50;49.25;;;;;6.65;63.13;103372.19;5060196;28;45663;-67
2022/01/12 12:32:52;;;;;;;;;73.75;52.00;;;;;6.67;63.99;103366.03;5062370;28;45502;-65
2022/01/12 12:35:24;;;;;;;;;68.50;52.00;;;;;6.76;63.56;103365.16;5054424;28;45537;-65
2022/01/12 12:37:54;;;;;;;;;69.00;54.75;;;;;6.76;62.93;103354.59;5048219;28;45232;-68